sensor_id;sensor_type;location;lat;lon;timestamp;P1;durP1;ratioP1;P2;durP2;ratioP2
43337;SDS011;28933;52.492;13.434;2022-07-18T00:02:19;5.25;;;3.70;;
43337;SDS011;28933;52.492;13.434;2022-07-18T00:04:44;4.55;;;3.17;;
43337;SDS011;28933;52.492;13.434;2022-07-18T00:07:10;5.43;;;3.30;;
43337;SDS011;28933;52.492;13.434;2022-07-18T00:09:36;6.85;;;3.28;;
43337;SDS011;28933;52.492;13.434;2022-07-18T00:12:03;7.57;;;4.00;;
43337;SDS011;28933;52.492;13.434;2022-07-18T00:14:29;7.78;;;3.92;;
43337;SDS011;28933;52.492;13.434;2022-07-18T00:16:55;7.00;;;3.33;;
43337;SDS011;28933;52.492;13.434;2022-07-18T00:19:20;8.30;;;4.28;;
43337;SDS011;28933;52.492;13.434;2022-07-18T00:21:47;5.38;;;2.80;;
43337;SDS011;28933;52.492;13.434;2022-07-18T00:24:13;4.45;;;3.42;;
43337;SDS011;28933;52.492;13.434;2022-07-18T00:26:38;6.03;;;3.95;;
43337;SDS011;28933;52.492;13.434;2022-07-18T00:29:04;6.25;;;3.38;;
43337;SDS011;28933;52.492;13.434;2022-07-18T00:31:29;6.30;;;3.42;;
43337;SDS011;28933;52.492;13.434;2022-07-18T00:33:55;6.13;;;3.38;;
43337;SDS011;28933;52.492;13.434;2022-07-18T00:36:21;6.88;;;3.20;;
43337;SDS011;28933;52.492;13.434;2022-07-18T00:38:47;5.78;;;2.80;;
43337;SDS011;28933;52.492;13.434;2022-07-18T00:41:14;7.88;;;3.78;;
43337;SDS011;28933;52.492;13.434;2022-07-18T00:43:43;5.35;;;3.22;;
43337;SDS011;28933;52.492;13.434;2022-07-18T00:46:08;9.05;;;3.40;;
43337;SDS011;28933;52.492;13.434;2022-07-18T00:48:36;4.70;;;2.85;;
43337;SDS011;28933;52.492;13.434;2022-07-18T00:51:03;6.28;;;3.25;;
43337;SDS011;28933;52.492;13.434;2022-07-18T00:53:29;5.60;;;3.28;;
43337;SDS011;28933;52.492;13.434;2022-07-18T00:55:54;4.65;;;3.13;;
43337;SDS011;28933;52.492;13.434;2022-07-18T00:58:20;7.22;;;3.33;;
43337;SDS011;28933;52.492;13.434;2022-07-18T01:00:46;6.65;;;3.08;;
43337;SDS011;28933;52.492;13.434;2022-07-18T01:03:30;4.13;;;2.90;;
43337;SDS011;28933;52.492;13.434;2022-07-18T01:05:57;10.02;;;3.05;;
43337;SDS011;28933;52.492;13.434;2022-07-18T01:08:23;6.03;;;2.58;;
43337;SDS011;28933;52.492;13.434;2022-07-18T01:10:49;4.07;;;2.70;;
43337;SDS011;28933;52.492;13.434;2022-07-18T01:13:17;5.53;;;3.00;;
43337;SDS011;28933;52.492;13.434;2022-07-18T01:15:43;3.90;;;2.65;;
43337;SDS011;28933;52.492;13.434;2022-07-18T01:18:08;5.60;;;2.97;;
43337;SDS011;28933;52.492;13.434;2022-07-18T01:20:34;4.07;;;2.55;;
43337;SDS011;28933;52.492;13.434;2022-07-18T01:23:00;4.07;;;2.67;;
43337;SDS011;28933;52.492;13.434;2022-07-18T01:25:26;3.78;;;2.63;;
43337;SDS011;28933;52.492;13.434;2022-07-18T01:27:52;6.53;;;2.72;;
43337;SDS011;28933;52.492;13.434;2022-07-18T01:30:18;4.03;;;2.15;;
43337;SDS011;28933;52.492;13.434;2022-07-18T01:32:44;6.50;;;2.65;;
43337;SDS011;28933;52.492;13.434;2022-07-18T01:35:09;3.78;;;2.72;;
43337;SDS011;28933;52.492;13.434;2022-07-18T01:37:35;4.35;;;2.78;;
43337;SDS011;28933;52.492;13.434;2022-07-18T01:40:01;4.22;;;2.53;;
43337;SDS011;28933;52.492;13.434;2022-07-18T01:42:31;6.43;;;2.30;;
43337;SDS011;28933;52.492;13.434;2022-07-18T01:44:57;7.43;;;3.00;;
43337;SDS011;28933;52.492;13.434;2022-07-18T01:47:22;5.55;;;2.58;;
43337;SDS011;28933;52.492;13.434;2022-07-18T01:49:48;5.15;;;2.50;;
43337;SDS011;28933;52.492;13.434;2022-07-18T01:52:13;3.85;;;2.30;;
43337;SDS011;28933;52.492;13.434;2022-07-18T01:54:39;5.05;;;2.20;;
43337;SDS011;28933;52.492;13.434;2022-07-18T01:57:05;4.88;;;2.67;;
43337;SDS011;28933;52.492;13.434;2022-07-18T01:59:32;4.45;;;2.85;;
43337;SDS011;28933;52.492;13.434;2022-07-18T02:01:58;5.22;;;2.80;;
43337;SDS011;28933;52.492;13.434;2022-07-18T02:04:23;5.28;;;2.78;;
43337;SDS011;28933;52.492;13.434;2022-07-18T02:07:09;5.85;;;2.65;;
43337;SDS011;28933;52.492;13.434;2022-07-18T02:09:36;8.25;;;2.63;;
43337;SDS011;28933;52.492;13.434;2022-07-18T02:12:03;4.47;;;2.65;;
43337;SDS011;28933;52.492;13.434;2022-07-18T02:14:28;4.40;;;2.75;;
43337;SDS011;28933;52.492;13.434;2022-07-18T02:16:54;5.60;;;2.60;;
43337;SDS011;28933;52.492;13.434;2022-07-18T02:19:19;6.82;;;2.85;;
43337;SDS011;28933;52.492;13.434;2022-07-18T02:21:45;4.07;;;2.70;;
43337;SDS011;28933;52.492;13.434;2022-07-18T02:24:11;6.35;;;2.70;;
43337;SDS011;28933;52.492;13.434;2022-07-18T02:26:36;5.10;;;2.42;;
43337;SDS011;28933;52.492;13.434;2022-07-18T02:29:02;5.65;;;2.75;;
43337;SDS011;28933;52.492;13.434;2022-07-18T02:31:28;6.78;;;2.78;;
43337;SDS011;28933;52.492;13.434;2022-07-18T02:33:53;4.40;;;2.35;;
43337;SDS011;28933;52.492;13.434;2022-07-18T02:36:19;5.50;;;2.90;;
43337;SDS011;28933;52.492;13.434;2022-07-18T02:38:45;4.95;;;3.10;;
43337;SDS011;28933;52.492;13.434;2022-07-18T02:41:10;5.22;;;2.95;;
43337;SDS011;28933;52.492;13.434;2022-07-18T02:43:36;3.88;;;2.40;;
43337;SDS011;28933;52.492;13.434;2022-07-18T02:46:02;5.72;;;2.75;;
43337;SDS011;28933;52.492;13.434;2022-07-18T02:48:28;4.30;;;2.90;;
43337;SDS011;28933;52.492;13.434;2022-07-18T02:50:54;5.82;;;3.30;;
43337;SDS011;28933;52.492;13.434;2022-07-18T02:53:20;5.53;;;2.83;;
43337;SDS011;28933;52.492;13.434;2022-07-18T02:55:48;6.22;;;2.90;;
43337;SDS011;28933;52.492;13.434;2022-07-18T02:58:17;6.13;;;2.88;;
43337;SDS011;28933;52.492;13.434;2022-07-18T03:00:43;8.43;;;3.22;;
43337;SDS011;28933;52.492;13.434;2022-07-18T03:03:09;4.65;;;2.50;;
43337;SDS011;28933;52.492;13.434;2022-07-18T03:05:35;5.97;;;3.00;;
43337;SDS011;28933;52.492;13.434;2022-07-18T03:08:00;4.65;;;2.60;;
43337;SDS011;28933;52.492;13.434;2022-07-18T03:10:26;6.45;;;3.00;;
43337;SDS011;28933;52.492;13.434;2022-07-18T03:12:52;4.13;;;2.60;;
43337;SDS011;28933;52.492;13.434;2022-07-18T03:15:17;6.55;;;2.90;;
43337;SDS011;28933;52.492;13.434;2022-07-18T03:17:43;3.95;;;2.60;;
43337;SDS011;28933;52.492;13.434;2022-07-18T03:20:08;7.13;;;3.47;;
43337;SDS011;28933;52.492;13.434;2022-07-18T03:22:44;4.93;;;2.90;;
43337;SDS011;28933;52.492;13.434;2022-07-18T03:25:10;5.53;;;2.95;;
43337;SDS011;28933;52.492;13.434;2022-07-18T03:27:37;4.22;;;3.08;;
43337;SDS011;28933;52.492;13.434;2022-07-18T03:30:03;5.38;;;2.78;;
43337;SDS011;28933;52.492;13.434;2022-07-18T03:32:29;4.18;;;2.88;;
43337;SDS011;28933;52.492;13.434;2022-07-18T03:34:55;4.47;;;2.60;;
43337;SDS011;28933;52.492;13.434;2022-07-18T03:37:20;6.93;;;2.67;;
43337;SDS011;28933;52.492;13.434;2022-07-18T03:39:53;6.18;;;2.80;;
43337;SDS011;28933;52.492;13.434;2022-07-18T03:42:19;7.35;;;3.20;;
43337;SDS011;28933;52.492;13.434;2022-07-18T03:44:44;5.53;;;3.13;;
43337;SDS011;28933;52.492;13.434;2022-07-18T03:47:10;5.75;;;3.00;;
43337;SDS011;28933;52.492;13.434;2022-07-18T03:49:36;5.03;;;2.58;;
43337;SDS011;28933;52.492;13.434;2022-07-18T03:52:01;4.32;;;2.97;;
43337;SDS011;28933;52.492;13.434;2022-07-18T03:54:27;5.22;;;2.40;;
43337;SDS011;28933;52.492;13.434;2022-07-18T03:56:53;5.50;;;2.90;;
43337;SDS011;28933;52.492;13.434;2022-07-18T03:59:18;3.35;;;2.53;;
43337;SDS011;28933;52.492;13.434;2022-07-18T04:01:44;3.92;;;2.38;;
43337;SDS011;28933;52.492;13.434;2022-07-18T04:04:10;6.03;;;2.78;;
43337;SDS011;28933;52.492;13.434;2022-07-18T04:06:35;5.00;;;2.95;;
43337;SDS011;28933;52.492;13.434;2022-07-18T04:09:01;3.95;;;2.47;;
43337;SDS011;28933;52.492;13.434;2022-07-18T04:11:26;5.80;;;2.42;;
43337;SDS011;28933;52.492;13.434;2022-07-18T04:13:53;6.60;;;3.22;;
43337;SDS011;28933;52.492;13.434;2022-07-18T04:16:19;4.90;;;2.65;;
43337;SDS011;28933;52.492;13.434;2022-07-18T04:18:45;4.25;;;2.67;;
43337;SDS011;28933;52.492;13.434;2022-07-18T04:21:11;5.40;;;2.95;;
43337;SDS011;28933;52.492;13.434;2022-07-18T04:23:38;4.65;;;2.95;;
43337;SDS011;28933;52.492;13.434;2022-07-18T04:26:04;5.00;;;2.88;;
43337;SDS011;28933;52.492;13.434;2022-07-18T04:28:30;4.75;;;2.55;;
43337;SDS011;28933;52.492;13.434;2022-07-18T04:30:56;5.82;;;2.75;;
43337;SDS011;28933;52.492;13.434;2022-07-18T04:33:21;5.55;;;2.60;;
43337;SDS011;28933;52.492;13.434;2022-07-18T04:35:48;5.28;;;3.25;;
43337;SDS011;28933;52.492;13.434;2022-07-18T04:38:14;5.93;;;2.47;;
43337;SDS011;28933;52.492;13.434;2022-07-18T04:40:40;6.32;;;2.85;;
43337;SDS011;28933;52.492;13.434;2022-07-18T04:43:06;6.03;;;2.42;;
43337;SDS011;28933;52.492;13.434;2022-07-18T04:45:33;4.93;;;2.72;;
43337;SDS011;28933;52.492;13.434;2022-07-18T04:48:00;6.35;;;2.60;;
43337;SDS011;28933;52.492;13.434;2022-07-18T04:50:26;6.32;;;2.75;;
43337;SDS011;28933;52.492;13.434;2022-07-18T04:52:55;5.95;;;3.00;;
43337;SDS011;28933;52.492;13.434;2022-07-18T04:55:21;5.68;;;2.20;;
43337;SDS011;28933;52.492;13.434;2022-07-18T04:57:47;5.53;;;2.65;;
43337;SDS011;28933;52.492;13.434;2022-07-18T05:00:15;6.70;;;3.17;;
43337;SDS011;28933;52.492;13.434;2022-07-18T05:02:46;4.47;;;2.38;;
43337;SDS011;28933;52.492;13.434;2022-07-18T05:05:14;12.77;;;2.97;;
43337;SDS011;28933;52.492;13.434;2022-07-18T05:07:42;5.70;;;2.63;;
43337;SDS011;28933;52.492;13.434;2022-07-18T05:10:10;4.88;;;3.00;;
43337;SDS011;28933;52.492;13.434;2022-07-18T05:12:37;5.53;;;2.75;;
43337;SDS011;28933;52.492;13.434;2022-07-18T05:15:05;5.25;;;3.00;;
43337;SDS011;28933;52.492;13.434;2022-07-18T05:17:32;5.45;;;3.17;;
43337;SDS011;28933;52.492;13.434;2022-07-18T05:19:58;4.85;;;2.80;;
43337;SDS011;28933;52.492;13.434;2022-07-18T05:22:23;4.40;;;2.40;;
43337;SDS011;28933;52.492;13.434;2022-07-18T05:24:52;5.75;;;2.88;;
43337;SDS011;28933;52.492;13.434;2022-07-18T05:27:17;4.20;;;2.60;;
43337;SDS011;28933;52.492;13.434;2022-07-18T05:29:43;3.42;;;2.30;;
43337;SDS011;28933;52.492;13.434;2022-07-18T05:32:09;5.22;;;2.50;;
43337;SDS011;28933;52.492;13.434;2022-07-18T05:34:36;4.72;;;2.47;;
43337;SDS011;28933;52.492;13.434;2022-07-18T05:37:02;4.10;;;2.35;;
43337;SDS011;28933;52.492;13.434;2022-07-18T05:39:28;5.65;;;3.22;;
43337;SDS011;28933;52.492;13.434;2022-07-18T05:41:53;6.22;;;3.05;;
43337;SDS011;28933;52.492;13.434;2022-07-18T05:44:19;6.90;;;2.92;;
43337;SDS011;28933;52.492;13.434;2022-07-18T05:46:45;6.05;;;2.45;;
43337;SDS011;28933;52.492;13.434;2022-07-18T05:49:12;3.45;;;2.60;;
43337;SDS011;28933;52.492;13.434;2022-07-18T05:51:39;6.50;;;2.50;;
43337;SDS011;28933;52.492;13.434;2022-07-18T05:54:05;5.57;;;2.42;;
43337;SDS011;28933;52.492;13.434;2022-07-18T05:56:31;4.53;;;2.28;;
43337;SDS011;28933;52.492;13.434;2022-07-18T05:58:56;5.07;;;2.72;;
43337;SDS011;28933;52.492;13.434;2022-07-18T06:01:22;4.55;;;2.75;;
43337;SDS011;28933;52.492;13.434;2022-07-18T06:03:48;3.97;;;2.40;;
43337;SDS011;28933;52.492;13.434;2022-07-18T06:06:14;4.93;;;2.30;;
43337;SDS011;28933;52.492;13.434;2022-07-18T06:08:40;4.20;;;2.63;;
43337;SDS011;28933;52.492;13.434;2022-07-18T06:11:06;5.97;;;2.40;;
43337;SDS011;28933;52.492;13.434;2022-07-18T06:13:34;5.68;;;2.63;;
43337;SDS011;28933;52.492;13.434;2022-07-18T06:16:01;4.03;;;2.30;;
43337;SDS011;28933;52.492;13.434;2022-07-18T06:18:27;4.45;;;2.35;;
43337;SDS011;28933;52.492;13.434;2022-07-18T06:20:53;6.80;;;2.83;;
43337;SDS011;28933;52.492;13.434;2022-07-18T06:23:18;4.47;;;2.25;;
43337;SDS011;28933;52.492;13.434;2022-07-18T06:25:47;7.72;;;2.50;;
43337;SDS011;28933;52.492;13.434;2022-07-18T06:28:13;5.72;;;2.50;;
43337;SDS011;28933;52.492;13.434;2022-07-18T06:30:38;5.20;;;2.50;;
43337;SDS011;28933;52.492;13.434;2022-07-18T06:33:04;5.93;;;2.38;;
43337;SDS011;28933;52.492;13.434;2022-07-18T06:35:32;3.22;;;1.90;;
43337;SDS011;28933;52.492;13.434;2022-07-18T06:37:58;4.55;;;2.47;;
43337;SDS011;28933;52.492;13.434;2022-07-18T06:40:25;6.72;;;2.88;;
43337;SDS011;28933;52.492;13.434;2022-07-18T06:42:51;5.88;;;2.00;;
43337;SDS011;28933;52.492;13.434;2022-07-18T06:45:17;4.90;;;2.53;;
43337;SDS011;28933;52.492;13.434;2022-07-18T06:47:43;3.72;;;1.92;;
43337;SDS011;28933;52.492;13.434;2022-07-18T06:50:13;3.20;;;1.83;;
43337;SDS011;28933;52.492;13.434;2022-07-18T06:52:40;3.25;;;1.88;;
43337;SDS011;28933;52.492;13.434;2022-07-18T06:55:07;4.55;;;2.13;;
43337;SDS011;28933;52.492;13.434;2022-07-18T06:57:33;5.68;;;2.30;;
43337;SDS011;28933;52.492;13.434;2022-07-18T06:59:59;4.75;;;2.33;;
43337;SDS011;28933;52.492;13.434;2022-07-18T07:02:25;3.40;;;1.75;;
43337;SDS011;28933;52.492;13.434;2022-07-18T07:04:51;3.55;;;1.85;;
43337;SDS011;28933;52.492;13.434;2022-07-18T07:07:17;6.82;;;3.15;;
43337;SDS011;28933;52.492;13.434;2022-07-18T07:09:43;3.85;;;1.83;;
43337;SDS011;28933;52.492;13.434;2022-07-18T07:12:15;6.88;;;1.85;;
43337;SDS011;28933;52.492;13.434;2022-07-18T07:14:41;6.47;;;2.00;;
43337;SDS011;28933;52.492;13.434;2022-07-18T07:17:06;6.70;;;2.22;;
43337;SDS011;28933;52.492;13.434;2022-07-18T07:19:32;8.80;;;3.22;;
43337;SDS011;28933;52.492;13.434;2022-07-18T07:21:57;3.70;;;2.13;;
43337;SDS011;28933;52.492;13.434;2022-07-18T07:24:23;4.00;;;2.10;;
43337;SDS011;28933;52.492;13.434;2022-07-18T07:26:49;5.15;;;1.88;;
43337;SDS011;28933;52.492;13.434;2022-07-18T07:29:14;3.95;;;1.67;;
43337;SDS011;28933;52.492;13.434;2022-07-18T07:31:40;4.88;;;1.80;;
43337;SDS011;28933;52.492;13.434;2022-07-18T07:34:07;9.10;;;3.63;;
43337;SDS011;28933;52.492;13.434;2022-07-18T07:36:33;6.75;;;2.80;;
43337;SDS011;28933;52.492;13.434;2022-07-18T07:38:59;5.13;;;1.85;;
43337;SDS011;28933;52.492;13.434;2022-07-18T07:41:25;5.38;;;2.65;;
43337;SDS011;28933;52.492;13.434;2022-07-18T07:43:50;3.97;;;1.98;;
43337;SDS011;28933;52.492;13.434;2022-07-18T07:46:16;3.50;;;1.80;;
43337;SDS011;28933;52.492;13.434;2022-07-18T07:48:41;3.80;;;2.45;;
43337;SDS011;28933;52.492;13.434;2022-07-18T07:51:08;3.50;;;2.17;;
43337;SDS011;28933;52.492;13.434;2022-07-18T07:53:34;4.30;;;2.10;;
43337;SDS011;28933;52.492;13.434;2022-07-18T07:55:59;4.00;;;1.83;;
43337;SDS011;28933;52.492;13.434;2022-07-18T07:58:25;2.72;;;1.70;;
43337;SDS011;28933;52.492;13.434;2022-07-18T08:00:50;3.05;;;1.95;;
43337;SDS011;28933;52.492;13.434;2022-07-18T08:03:16;3.25;;;1.83;;
43337;SDS011;28933;52.492;13.434;2022-07-18T08:05:46;3.28;;;1.95;;
43337;SDS011;28933;52.492;13.434;2022-07-18T08:08:13;3.45;;;1.60;;
43337;SDS011;28933;52.492;13.434;2022-07-18T08:10:38;5.82;;;2.10;;
43337;SDS011;28933;52.492;13.434;2022-07-18T08:13:04;5.40;;;1.95;;
43337;SDS011;28933;52.492;13.434;2022-07-18T08:15:30;3.80;;;1.80;;
43337;SDS011;28933;52.492;13.434;2022-07-18T08:17:56;7.03;;;2.22;;
43337;SDS011;28933;52.492;13.434;2022-07-18T08:20:22;3.13;;;1.77;;
43337;SDS011;28933;52.492;13.434;2022-07-18T08:25:20;3.20;;;1.90;;
43337;SDS011;28933;52.492;13.434;2022-07-18T08:27:46;5.90;;;2.33;;
43337;SDS011;28933;52.492;13.434;2022-07-18T08:30:12;5.47;;;2.53;;
43337;SDS011;28933;52.492;13.434;2022-07-18T08:32:38;4.18;;;2.35;;
43337;SDS011;28933;52.492;13.434;2022-07-18T08:35:03;5.88;;;2.17;;
43337;SDS011;28933;52.492;13.434;2022-07-18T08:37:29;5.45;;;2.33;;
43337;SDS011;28933;52.492;13.434;2022-07-18T08:39:56;4.03;;;2.40;;
43337;SDS011;28933;52.492;13.434;2022-07-18T08:42:22;3.95;;;2.38;;
43337;SDS011;28933;52.492;13.434;2022-07-18T08:44:50;3.83;;;2.20;;
43337;SDS011;28933;52.492;13.434;2022-07-18T08:47:19;4.20;;;1.92;;
43337;SDS011;28933;52.492;13.434;2022-07-18T08:49:45;6.70;;;3.47;;
43337;SDS011;28933;52.492;13.434;2022-07-18T08:52:12;5.47;;;2.85;;
43337;SDS011;28933;52.492;13.434;2022-07-18T08:54:40;5.50;;;3.22;;
43337;SDS011;28933;52.492;13.434;2022-07-18T08:57:06;4.63;;;2.65;;
43337;SDS011;28933;52.492;13.434;2022-07-18T08:59:32;5.20;;;2.25;;
43337;SDS011;28933;52.492;13.434;2022-07-18T09:01:57;5.18;;;2.50;;
43337;SDS011;28933;52.492;13.434;2022-07-18T09:04:36;5.03;;;2.90;;
43337;SDS011;28933;52.492;13.434;2022-07-18T09:07:07;5.38;;;3.33;;
43337;SDS011;28933;52.492;13.434;2022-07-18T09:09:36;6.18;;;3.05;;
43337;SDS011;28933;52.492;13.434;2022-07-18T09:12:04;5.45;;;3.05;;
43337;SDS011;28933;52.492;13.434;2022-07-18T09:19:40;4.93;;;3.10;;
43337;SDS011;28933;52.492;13.434;2022-07-18T09:22:11;5.15;;;3.00;;
43337;SDS011;28933;52.492;13.434;2022-07-18T09:24:58;8.27;;;3.05;;
43337;SDS011;28933;52.492;13.434;2022-07-18T09:27:39;4.30;;;2.90;;
43337;SDS011;28933;52.492;13.434;2022-07-18T09:30:07;6.15;;;3.55;;
43337;SDS011;28933;52.492;13.434;2022-07-18T09:32:34;4.40;;;3.35;;
43337;SDS011;28933;52.492;13.434;2022-07-18T09:35:10;6.85;;;4.13;;
43337;SDS011;28933;52.492;13.434;2022-07-18T09:37:38;5.93;;;4.45;;
43337;SDS011;28933;52.492;13.434;2022-07-18T09:40:13;6.47;;;3.92;;
43337;SDS011;28933;52.492;13.434;2022-07-18T09:42:40;6.10;;;3.70;;
43337;SDS011;28933;52.492;13.434;2022-07-18T09:45:06;4.43;;;2.72;;
43337;SDS011;28933;52.492;13.434;2022-07-18T09:47:32;5.75;;;2.63;;
43337;SDS011;28933;52.492;13.434;2022-07-18T09:50:30;4.70;;;2.30;;
43337;SDS011;28933;52.492;13.434;2022-07-18T09:52:59;4.45;;;2.38;;
43337;SDS011;28933;52.492;13.434;2022-07-18T09:55:29;4.15;;;2.58;;
43337;SDS011;28933;52.492;13.434;2022-07-18T09:57:56;5.15;;;2.80;;
43337;SDS011;28933;52.492;13.434;2022-07-18T10:00:33;4.65;;;3.08;;
43337;SDS011;28933;52.492;13.434;2022-07-18T10:03:01;4.55;;;2.70;;
43337;SDS011;28933;52.492;13.434;2022-07-18T10:05:29;3.75;;;2.38;;
43337;SDS011;28933;52.492;13.434;2022-07-18T10:07:56;5.55;;;2.65;;
43337;SDS011;28933;52.492;13.434;2022-07-18T10:10:23;3.58;;;2.22;;
43337;SDS011;28933;52.492;13.434;2022-07-18T10:12:50;5.63;;;2.63;;
43337;SDS011;28933;52.492;13.434;2022-07-18T10:15:20;4.57;;;2.65;;
43337;SDS011;28933;52.492;13.434;2022-07-18T10:17:47;9.27;;;3.50;;
43337;SDS011;28933;52.492;13.434;2022-07-18T10:20:14;4.72;;;2.60;;
43337;SDS011;28933;52.492;13.434;2022-07-18T10:22:40;4.70;;;2.83;;
43337;SDS011;28933;52.492;13.434;2022-07-18T10:25:09;4.80;;;2.95;;
43337;SDS011;28933;52.492;13.434;2022-07-18T10:28:04;6.47;;;3.35;;
43337;SDS011;28933;52.492;13.434;2022-07-18T10:30:31;5.63;;;2.85;;
43337;SDS011;28933;52.492;13.434;2022-07-18T10:36:13;4.57;;;3.22;;
43337;SDS011;28933;52.492;13.434;2022-07-18T10:57:42;3.60;;;2.40;;
43337;SDS011;28933;52.492;13.434;2022-07-18T11:00:34;4.13;;;2.40;;
43337;SDS011;28933;52.492;13.434;2022-07-18T11:03:08;5.45;;;3.05;;
43337;SDS011;28933;52.492;13.434;2022-07-18T11:05:36;4.72;;;2.20;;
43337;SDS011;28933;52.492;13.434;2022-07-18T11:13:20;6.55;;;2.65;;
43337;SDS011;28933;52.492;13.434;2022-07-18T11:19:17;3.45;;;2.63;;
43337;SDS011;28933;52.492;13.434;2022-07-18T11:21:22;4.03;;;3.00;;
43337;SDS011;28933;52.492;13.434;2022-07-18T11:23:53;4.88;;;2.50;;
43337;SDS011;28933;52.492;13.434;2022-07-18T11:26:24;4.50;;;2.95;;
43337;SDS011;28933;52.492;13.434;2022-07-18T11:31:23;7.60;;;3.15;;
43337;SDS011;28933;52.492;13.434;2022-07-18T11:33:50;5.00;;;2.83;;
43337;SDS011;28933;52.492;13.434;2022-07-18T11:36:17;6.15;;;2.90;;
43337;SDS011;28933;52.492;13.434;2022-07-18T11:38:48;7.30;;;3.33;;
43337;SDS011;28933;52.492;13.434;2022-07-18T11:41:15;5.20;;;3.35;;
43337;SDS011;28933;52.492;13.434;2022-07-18T11:43:43;7.07;;;3.35;;
43337;SDS011;28933;52.492;13.434;2022-07-18T11:46:10;6.03;;;3.03;;
43337;SDS011;28933;52.492;13.434;2022-07-18T11:48:37;4.97;;;3.60;;
43337;SDS011;28933;52.492;13.434;2022-07-18T11:51:17;5.57;;;3.08;;
43337;SDS011;28933;52.492;13.434;2022-07-18T11:53:46;5.38;;;3.13;;
43337;SDS011;28933;52.492;13.434;2022-07-18T11:56:16;5.68;;;3.33;;
43337;SDS011;28933;52.492;13.434;2022-07-18T11:58:43;5.00;;;3.40;;
43337;SDS011;28933;52.492;13.434;2022-07-18T12:01:10;5.18;;;3.28;;
43337;SDS011;28933;52.492;13.434;2022-07-18T12:03:36;5.57;;;3.53;;
43337;SDS011;28933;52.492;13.434;2022-07-18T12:06:09;4.82;;;3.70;;
43337;SDS011;28933;52.492;13.434;2022-07-18T12:08:41;4.13;;;3.17;;
43337;SDS011;28933;52.492;13.434;2022-07-18T12:11:13;6.55;;;3.78;;
43337;SDS011;28933;52.492;13.434;2022-07-18T12:16:27;7.90;;;3.92;;
43337;SDS011;28933;52.492;13.434;2022-07-18T12:19:02;3.53;;;2.72;;
43337;SDS011;28933;52.492;13.434;2022-07-18T12:26:43;7.18;;;3.10;;
43337;SDS011;28933;52.492;13.434;2022-07-18T12:29:09;3.90;;;2.70;;
43337;SDS011;28933;52.492;13.434;2022-07-18T12:31:36;5.60;;;3.20;;
43337;SDS011;28933;52.492;13.434;2022-07-18T12:34:09;5.25;;;3.20;;
43337;SDS011;28933;52.492;13.434;2022-07-18T12:36:57;4.20;;;3.30;;
43337;SDS011;28933;52.492;13.434;2022-07-18T12:39:29;7.60;;;3.40;;
43337;SDS011;28933;52.492;13.434;2022-07-18T12:41:56;6.22;;;3.70;;
43337;SDS011;28933;52.492;13.434;2022-07-18T12:44:26;3.97;;;3.08;;
43337;SDS011;28933;52.492;13.434;2022-07-18T12:46:53;4.40;;;3.13;;
43337;SDS011;28933;52.492;13.434;2022-07-18T12:49:19;5.05;;;3.30;;
43337;SDS011;28933;52.492;13.434;2022-07-18T12:51:45;8.68;;;3.58;;
43337;SDS011;28933;52.492;13.434;2022-07-18T12:54:11;5.25;;;3.60;;
43337;SDS011;28933;52.492;13.434;2022-07-18T12:56:37;7.68;;;4.07;;
43337;SDS011;28933;52.492;13.434;2022-07-18T12:59:15;4.22;;;3.03;;
43337;SDS011;28933;52.492;13.434;2022-07-18T13:01:44;5.10;;;3.25;;
43337;SDS011;28933;52.492;13.434;2022-07-18T13:04:09;4.85;;;3.28;;
43337;SDS011;28933;52.492;13.434;2022-07-18T13:06:35;4.50;;;3.05;;
43337;SDS011;28933;52.492;13.434;2022-07-18T13:09:02;3.85;;;3.10;;
43337;SDS011;28933;52.492;13.434;2022-07-18T13:11:28;4.00;;;2.90;;
43337;SDS011;28933;52.492;13.434;2022-07-18T13:13:53;4.90;;;2.97;;
43337;SDS011;28933;52.492;13.434;2022-07-18T13:16:19;5.80;;;2.88;;
43337;SDS011;28933;52.492;13.434;2022-07-18T13:18:44;4.00;;;2.95;;
43337;SDS011;28933;52.492;13.434;2022-07-18T13:21:10;10.45;;;3.90;;
43337;SDS011;28933;52.492;13.434;2022-07-18T13:23:37;4.85;;;2.80;;
43337;SDS011;28933;52.492;13.434;2022-07-18T13:26:03;3.90;;;2.70;;
43337;SDS011;28933;52.492;13.434;2022-07-18T13:28:28;6.50;;;2.70;;
43337;SDS011;28933;52.492;13.434;2022-07-18T13:30:54;3.72;;;2.67;;
43337;SDS011;28933;52.492;13.434;2022-07-18T13:33:21;3.58;;;2.53;;
43337;SDS011;28933;52.492;13.434;2022-07-18T13:35:46;3.90;;;2.58;;
43337;SDS011;28933;52.492;13.434;2022-07-18T13:38:12;6.07;;;2.75;;
43337;SDS011;28933;52.492;13.434;2022-07-18T13:40:37;4.63;;;3.03;;
43337;SDS011;28933;52.492;13.434;2022-07-18T13:43:03;3.17;;;2.58;;
43337;SDS011;28933;52.492;13.434;2022-07-18T13:45:28;4.60;;;2.80;;
43337;SDS011;28933;52.492;13.434;2022-07-18T13:47:54;3.60;;;2.55;;
43337;SDS011;28933;52.492;13.434;2022-07-18T13:50:19;3.78;;;2.55;;
43337;SDS011;28933;52.492;13.434;2022-07-18T13:52:45;4.53;;;2.72;;
43337;SDS011;28933;52.492;13.434;2022-07-18T13:55:11;3.35;;;2.30;;
43337;SDS011;28933;52.492;13.434;2022-07-18T13:57:36;5.70;;;2.70;;
43337;SDS011;28933;52.492;13.434;2022-07-18T14:00:03;4.00;;;2.70;;
43337;SDS011;28933;52.492;13.434;2022-07-18T14:02:33;3.58;;;2.28;;
43337;SDS011;28933;52.492;13.434;2022-07-18T14:04:59;3.78;;;2.60;;
43337;SDS011;28933;52.492;13.434;2022-07-18T14:07:24;3.70;;;2.60;;
43337;SDS011;28933;52.492;13.434;2022-07-18T14:09:50;4.47;;;2.83;;
43337;SDS011;28933;52.492;13.434;2022-07-18T14:12:15;5.53;;;3.55;;
43337;SDS011;28933;52.492;13.434;2022-07-18T14:14:41;5.57;;;3.28;;
43337;SDS011;28933;52.492;13.434;2022-07-18T14:17:07;4.03;;;3.10;;
43337;SDS011;28933;52.492;13.434;2022-07-18T14:19:32;5.20;;;3.40;;
43337;SDS011;28933;52.492;13.434;2022-07-18T14:22:01;4.63;;;3.47;;
43337;SDS011;28933;52.492;13.434;2022-07-18T14:24:30;4.70;;;3.15;;
43337;SDS011;28933;52.492;13.434;2022-07-18T14:26:56;6.55;;;3.50;;
43337;SDS011;28933;52.492;13.434;2022-07-18T14:29:21;3.92;;;2.80;;
43337;SDS011;28933;52.492;13.434;2022-07-18T14:31:47;6.65;;;3.95;;
43337;SDS011;28933;52.492;13.434;2022-07-18T14:34:12;5.70;;;3.03;;
43337;SDS011;28933;52.492;13.434;2022-07-18T14:36:38;4.68;;;3.60;;
43337;SDS011;28933;52.492;13.434;2022-07-18T14:39:04;5.30;;;3.13;;
43337;SDS011;28933;52.492;13.434;2022-07-18T14:41:30;4.70;;;3.55;;
43337;SDS011;28933;52.492;13.434;2022-07-18T14:43:55;6.13;;;3.67;;
43337;SDS011;28933;52.492;13.434;2022-07-18T14:46:21;9.65;;;3.55;;
43337;SDS011;28933;52.492;13.434;2022-07-18T14:48:46;5.68;;;3.90;;
43337;SDS011;28933;52.492;13.434;2022-07-18T14:51:14;4.68;;;3.15;;
43337;SDS011;28933;52.492;13.434;2022-07-18T14:53:40;5.22;;;3.55;;
43337;SDS011;28933;52.492;13.434;2022-07-18T14:56:05;5.40;;;3.60;;
43337;SDS011;28933;52.492;13.434;2022-07-18T14:58:31;5.45;;;3.67;;
43337;SDS011;28933;52.492;13.434;2022-07-18T15:00:56;5.30;;;3.67;;
43337;SDS011;28933;52.492;13.434;2022-07-18T15:03:22;5.57;;;4.32;;
43337;SDS011;28933;52.492;13.434;2022-07-18T15:05:47;5.47;;;3.63;;
43337;SDS011;28933;52.492;13.434;2022-07-18T15:08:13;4.38;;;3.38;;
43337;SDS011;28933;52.492;13.434;2022-07-18T15:10:39;5.68;;;3.47;;
43337;SDS011;28933;52.492;13.434;2022-07-18T15:13:04;4.97;;;3.58;;
43337;SDS011;28933;52.492;13.434;2022-07-18T15:15:30;5.57;;;3.78;;
43337;SDS011;28933;52.492;13.434;2022-07-18T15:17:56;4.63;;;3.55;;
43337;SDS011;28933;52.492;13.434;2022-07-18T15:20:22;6.03;;;4.53;;
43337;SDS011;28933;52.492;13.434;2022-07-18T15:22:49;5.90;;;4.32;;